sensor_id;sensor_type;location;lat;lon;timestamp;temperature;humidity
71649;SHT31;70112;45.624;11.760;2023-06-14T00:01:19;21.00;66.81
71649;SHT31;70112;45.624;11.760;2023-06-14T00:03:47;20.96;66.80
71649;SHT31;70112;45.624;11.760;2023-06-14T00:06:13;20.92;66.84
71649;SHT31;70112;45.624;11.760;2023-06-14T00:08:39;20.88;66.89
71649;SHT31;70112;45.624;11.760;2023-06-14T00:11:05;20.86;66.97
71649;SHT31;70112;45.624;11.760;2023-06-14T00:13:32;20.81;66.97
71649;SHT31;70112;45.624;11.760;2023-06-14T00:15:58;20.77;67.01
71649;SHT31;70112;45.624;11.760;2023-06-14T00:18:23;20.75;67.13
71649;SHT31;70112;45.624;11.760;2023-06-14T00:20:51;20.74;67.19
71649;SHT31;70112;45.624;11.760;2023-06-14T00:23:17;20.71;67.26
71649;SHT31;70112;45.624;11.760;2023-06-14T00:25:43;20.68;67.36
71649;SHT31;70112;45.624;11.760;2023-06-14T00:28:08;20.67;67.50
71649;SHT31;70112;45.624;11.760;2023-06-14T00:30:34;20.67;67.52
71649;SHT31;70112;45.624;11.760;2023-06-14T00:32:59;20.63;67.61
71649;SHT31;70112;45.624;11.760;2023-06-14T00:35:26;20.58;67.78
71649;SHT31;70112;45.624;11.760;2023-06-14T00:37:51;20.57;68.10
71649;SHT31;70112;45.624;11.760;2023-06-14T00:40:17;20.57;68.41
71649;SHT31;70112;45.624;11.760;2023-06-14T00:42:42;20.58;68.65
71649;SHT31;70112;45.624;11.760;2023-06-14T00:45:08;20.54;68.59
71649;SHT31;70112;45.624;11.760;2023-06-14T00:47:35;20.48;68.66
71649;SHT31;70112;45.624;11.760;2023-06-14T00:50:03;20.41;68.74
71649;SHT31;70112;45.624;11.760;2023-06-14T00:52:31;20.35;68.88
71649;SHT31;70112;45.624;11.760;2023-06-14T00:54:57;20.33;68.99
71649;SHT31;70112;45.624;11.760;2023-06-14T00:57:23;20.30;69.16
71649;SHT31;70112;45.624;11.760;2023-06-14T00:59:49;20.30;69.41
71649;SHT31;70112;45.624;11.760;2023-06-14T01:02:15;20.28;69.49
71649;SHT31;70112;45.624;11.760;2023-06-14T01:04:43;20.28;69.49
71649;SHT31;70112;45.624;11.760;2023-06-14T01:10:12;20.27;69.66
71649;SHT31;70112;45.624;11.760;2023-06-14T01:15:33;20.20;69.89
71649;SHT31;70112;45.624;11.760;2023-06-14T01:18:00;20.17;70.05
71649;SHT31;70112;45.624;11.760;2023-06-14T01:20:37;20.20;70.35
71649;SHT31;70112;45.624;11.760;2023-06-14T01:23:02;20.23;70.47
71649;SHT31;70112;45.624;11.760;2023-06-14T01:25:28;20.26;70.59
71649;SHT31;70112;45.624;11.760;2023-06-14T01:28:00;20.26;70.66
71649;SHT31;70112;45.624;11.760;2023-06-14T01:30:35;20.28;70.68
71649;SHT31;70112;45.624;11.760;2023-06-14T01:33:03;20.28;70.62
71649;SHT31;70112;45.624;11.760;2023-06-14T01:35:30;20.30;70.61
71649;SHT31;70112;45.624;11.760;2023-06-14T01:37:56;20.29;70.69
71649;SHT31;70112;45.624;11.760;2023-06-14T01:40:23;20.30;70.70
71649;SHT31;70112;45.624;11.760;2023-06-14T01:42:50;20.25;70.69
71649;SHT31;70112;45.624;11.760;2023-06-14T01:45:17;20.15;70.84
71649;SHT31;70112;45.624;11.760;2023-06-14T01:47:44;20.05;71.04
71649;SHT31;70112;45.624;11.760;2023-06-14T01:50:10;19.99;71.16
71649;SHT31;70112;45.624;11.760;2023-06-14T01:52:37;19.96;71.21
71649;SHT31;70112;45.624;11.760;2023-06-14T01:55:04;19.96;71.27
71649;SHT31;70112;45.624;11.760;2023-06-14T01:57:31;19.96;71.43
71649;SHT31;70112;45.624;11.760;2023-06-14T01:59:57;19.95;71.60
71649;SHT31;70112;45.624;11.760;2023-06-14T02:02:22;19.86;71.76
71649;SHT31;70112;45.624;11.760;2023-06-14T02:04:48;19.78;71.88
71649;SHT31;70112;45.624;11.760;2023-06-14T02:07:13;19.72;71.99
71649;SHT31;70112;45.624;11.760;2023-06-14T02:09:42;19.69;72.16
71649;SHT31;70112;45.624;11.760;2023-06-14T02:12:08;19.67;72.23
71649;SHT31;70112;45.624;11.760;2023-06-14T02:14:35;19.70;72.31
71649;SHT31;70112;45.624;11.760;2023-06-14T02:17:00;19.71;72.39
71649;SHT31;70112;45.624;11.760;2023-06-14T02:19:26;19.67;72.30
71649;SHT31;70112;45.624;11.760;2023-06-14T02:21:51;19.68;72.29
71649;SHT31;70112;45.624;11.760;2023-06-14T02:24:18;19.68;72.23
71649;SHT31;70112;45.624;11.760;2023-06-14T02:26:43;19.68;72.34
71649;SHT31;70112;45.624;11.760;2023-06-14T02:29:09;19.68;72.41
71649;SHT31;70112;45.624;11.760;2023-06-14T02:31:37;19.67;72.48
71649;SHT31;70112;45.624;11.760;2023-06-14T02:34:03;19.65;72.50
71649;SHT31;70112;45.624;11.760;2023-06-14T02:36:28;19.65;72.65
71649;SHT31;70112;45.624;11.760;2023-06-14T02:38:57;19.58;72.78
71649;SHT31;70112;45.624;11.760;2023-06-14T02:41:25;19.57;72.72
71649;SHT31;70112;45.624;11.760;2023-06-14T02:43:52;19.55;72.63
71649;SHT31;70112;45.624;11.760;2023-06-14T02:46:18;19.49;72.66
71649;SHT31;70112;45.624;11.760;2023-06-14T02:48:43;19.44;72.76
71649;SHT31;70112;45.624;11.760;2023-06-14T02:51:10;19.39;72.81
71649;SHT31;70112;45.624;11.760;2023-06-14T02:53:35;19.34;72.83
71649;SHT31;70112;45.624;11.760;2023-06-14T02:56:02;19.33;72.90
71649;SHT31;70112;45.624;11.760;2023-06-14T02:58:29;19.32;72.90
71649;SHT31;70112;45.624;11.760;2023-06-14T03:00:55;19.36;72.82
71649;SHT31;70112;45.624;11.760;2023-06-14T03:03:20;19.31;72.94
71649;SHT31;70112;45.624;11.760;2023-06-14T03:05:47;19.23;73.14
71649;SHT31;70112;45.624;11.760;2023-06-14T03:08:17;19.18;73.19
71649;SHT31;70112;45.624;11.760;2023-06-14T03:10:47;19.19;73.29
71649;SHT31;70112;45.624;11.760;2023-06-14T03:13:13;19.21;73.34
71649;SHT31;70112;45.624;11.760;2023-06-14T03:15:42;19.25;73.41
71649;SHT31;70112;45.624;11.760;2023-06-14T03:18:08;19.26;73.56
71649;SHT31;70112;45.624;11.760;2023-06-14T03:20:34;19.22;73.78
71649;SHT31;70112;45.624;11.760;2023-06-14T03:23:01;19.23;73.98
71649;SHT31;70112;45.624;11.760;2023-06-14T03:25:28;19.27;74.02
71649;SHT31;70112;45.624;11.760;2023-06-14T03:27:57;19.33;74.07
71649;SHT31;70112;45.624;11.760;2023-06-14T03:30:23;19.35;74.07
71649;SHT31;70112;45.624;11.760;2023-06-14T03:32:48;19.39;73.98
71649;SHT31;70112;45.624;11.760;2023-06-14T03:35:16;19.40;73.98
71649;SHT31;70112;45.624;11.760;2023-06-14T03:37:46;19.37;74.00
71649;SHT31;70112;45.624;11.760;2023-06-14T03:40:13;19.40;74.08
71649;SHT31;70112;45.624;11.760;2023-06-14T03:42:41;19.44;74.10
71649;SHT31;70112;45.624;11.760;2023-06-14T03:45:06;19.49;74.09
71649;SHT31;70112;45.624;11.760;2023-06-14T03:47:33;19.52;74.10
71649;SHT31;70112;45.624;11.760;2023-06-14T03:50:00;19.53;74.09
71649;SHT31;70112;45.624;11.760;2023-06-14T03:52:26;19.55;74.10
71649;SHT31;70112;45.624;11.760;2023-06-14T03:54:52;19.59;73.99
71649;SHT31;70112;45.624;11.760;2023-06-14T03:57:18;19.63;73.79
71649;SHT31;70112;45.624;11.760;2023-06-14T03:59:44;19.66;73.60
71649;SHT31;70112;45.624;11.760;2023-06-14T04:02:09;19.70;73.47
71649;SHT31;70112;45.624;11.760;2023-06-14T04:04:35;19.73;73.24
71649;SHT31;70112;45.624;11.760;2023-06-14T04:07:01;19.73;73.17
71649;SHT31;70112;45.624;11.760;2023-06-14T04:09:28;19.75;73.11
71649;SHT31;70112;45.624;11.760;2023-06-14T04:11:55;19.78;72.97
71649;SHT31;70112;45.624;11.760;2023-06-14T04:14:21;19.84;72.91
71649;SHT31;70112;45.624;11.760;2023-06-14T04:16:47;19.91;72.70
71649;SHT31;70112;45.624;11.760;2023-06-14T04:19:14;19.98;72.52
71649;SHT31;70112;45.624;11.760;2023-06-14T04:21:41;20.02;72.45
71649;SHT31;70112;45.624;11.760;2023-06-14T04:24:07;20.06;72.43
71649;SHT31;70112;45.624;11.760;2023-06-14T04:26:38;20.05;72.75
71649;SHT31;70112;45.624;11.760;2023-06-14T04:29:05;20.07;72.63
71649;SHT31;70112;45.624;11.760;2023-06-14T04:31:31;20.11;72.28
71649;SHT31;70112;45.624;11.760;2023-06-14T04:34:02;20.18;71.95
71649;SHT31;70112;45.624;11.760;2023-06-14T04:36:31;20.25;71.72
71649;SHT31;70112;45.624;11.760;2023-06-14T04:39:00;20.32;71.34
71649;SHT31;70112;45.624;11.760;2023-06-14T04:41:29;20.39;71.12
71649;SHT31;70112;45.624;11.760;2023-06-14T04:43:58;20.45;71.08
71649;SHT31;70112;45.624;11.760;2023-06-14T04:46:29;20.53;71.09
71649;SHT31;70112;45.624;11.760;2023-06-14T04:48:57;20.60;71.05
71649;SHT31;70112;45.624;11.760;2023-06-14T04:51:27;20.67;70.82
71649;SHT31;70112;45.624;11.760;2023-06-14T04:53:57;20.74;70.50
71649;SHT31;70112;45.624;11.760;2023-06-14T04:56:26;20.80;70.40
71649;SHT31;70112;45.624;11.760;2023-06-14T04:58:52;20.81;70.39
71649;SHT31;70112;45.624;11.760;2023-06-14T05:01:18;20.84;70.31
71649;SHT31;70112;45.624;11.760;2023-06-14T05:03:46;20.93;70.01
71649;SHT31;70112;45.624;11.760;2023-06-14T05:06:14;21.01;69.68
71649;SHT31;70112;45.624;11.760;2023-06-14T05:08:41;21.13;69.52
71649;SHT31;70112;45.624;11.760;2023-06-14T05:11:06;21.22;69.33
71649;SHT31;70112;45.624;11.760;2023-06-14T05:13:32;21.31;69.24
71649;SHT31;70112;45.624;11.760;2023-06-14T05:15:58;21.39;68.95
71649;SHT31;70112;45.624;11.760;2023-06-14T05:18:24;21.44;68.72
71649;SHT31;70112;45.624;11.760;2023-06-14T05:20:50;21.50;68.69
71649;SHT31;70112;45.624;11.760;2023-06-14T05:23:16;21.58;68.67
71649;SHT31;70112;45.624;11.760;2023-06-14T05:25:45;21.65;68.58
71649;SHT31;70112;45.624;11.760;2023-06-14T05:28:11;21.70;68.32
71649;SHT31;70112;45.624;11.760;2023-06-14T05:30:37;21.72;68.20
71649;SHT31;70112;45.624;11.760;2023-06-14T05:33:04;21.72;68.00
71649;SHT31;70112;45.624;11.760;2023-06-14T05:35:30;21.77;67.87
71649;SHT31;70112;45.624;11.760;2023-06-14T05:37:55;21.85;67.92
71649;SHT31;70112;45.624;11.760;2023-06-14T05:40:21;21.95;67.99
71649;SHT31;70112;45.624;11.760;2023-06-14T05:42:46;22.07;67.95
71649;SHT31;70112;45.624;11.760;2023-06-14T05:45:12;22.18;67.63
71649;SHT31;70112;45.624;11.760;2023-06-14T05:47:39;22.27;67.51
71649;SHT31;70112;45.624;11.760;2023-06-14T05:50:04;22.34;67.32
71649;SHT31;70112;45.624;11.760;2023-06-14T05:52:31;22.56;67.12
71649;SHT31;70112;45.624;11.760;2023-06-14T05:54:56;23.02;66.59
71649;SHT31;70112;45.624;11.760;2023-06-14T05:57:21;23.48;65.53
71649;SHT31;70112;45.624;11.760;2023-06-14T05:59:47;23.79;64.76
71649;SHT31;70112;45.624;11.760;2023-06-14T06:02:12;24.13;64.12
71649;SHT31;70112;45.624;11.760;2023-06-14T06:04:38;24.50;63.48
71649;SHT31;70112;45.624;11.760;2023-06-14T06:07:03;24.75;63.00
71649;SHT31;70112;45.624;11.760;2023-06-14T06:09:30;24.91;62.17
71649;SHT31;70112;45.624;11.760;2023-06-14T06:11:56;25.47;60.79
71649;SHT31;70112;45.624;11.760;2023-06-14T06:14:21;26.74;59.10
71649;SHT31;70112;45.624;11.760;2023-06-14T06:16:47;27.48;57.08
71649;SHT31;70112;45.624;11.760;2023-06-14T06:19:12;27.48;56.08
71649;SHT31;70112;45.624;11.760;2023-06-14T06:21:38;27.84;55.37
71649;SHT31;70112;45.624;11.760;2023-06-14T06:24:04;28.71;54.07
71649;SHT31;70112;45.624;11.760;2023-06-14T06:26:30;29.70;51.98
71649;SHT31;70112;45.624;11.760;2023-06-14T06:28:57;30.80;50.13
71649;SHT31;70112;45.624;11.760;2023-06-14T06:31:25;31.65;48.61
71649;SHT31;70112;45.624;11.760;2023-06-14T06:33:52;32.64;46.74
71649;SHT31;70112;45.624;11.760;2023-06-14T06:36:21;33.39;45.46
71649;SHT31;70112;45.624;11.760;2023-06-14T06:38:47;34.16;43.61
71649;SHT31;70112;45.624;11.760;2023-06-14T06:41:13;34.19;42.41
71649;SHT31;70112;45.624;11.760;2023-06-14T06:43:38;33.79;40.92
71649;SHT31;70112;45.624;11.760;2023-06-14T06:46:04;33.58;41.17
71649;SHT31;70112;45.624;11.760;2023-06-14T06:48:30;33.36;41.19
71649;SHT31;70112;45.624;11.760;2023-06-14T06:50:55;32.91;41.08
71649;SHT31;70112;45.624;11.760;2023-06-14T06:53:21;32.31;40.39
71649;SHT31;70112;45.624;11.760;2023-06-14T06:55:46;31.84;41.27
71649;SHT31;70112;45.624;11.760;2023-06-14T06:58:14;31.58;40.38
71649;SHT31;70112;45.624;11.760;2023-06-14T07:00:40;31.51;40.84
71649;SHT31;70112;45.624;11.760;2023-06-14T07:03:06;32.14;40.30
71649;SHT31;70112;45.624;11.760;2023-06-14T07:05:32;32.46;39.99
71649;SHT31;70112;45.624;11.760;2023-06-14T07:07:57;33.57;39.14
71649;SHT31;70112;45.624;11.760;2023-06-14T07:10:23;35.09;37.61
71649;SHT31;70112;45.624;11.760;2023-06-14T07:12:49;36.22;36.07
71649;SHT31;70112;45.624;11.760;2023-06-14T07:15:15;37.18;34.98
71649;SHT31;70112;45.624;11.760;2023-06-14T07:17:41;37.99;34.04
71649;SHT31;70112;45.624;11.760;2023-06-14T07:20:08;38.61;33.31
71649;SHT31;70112;45.624;11.760;2023-06-14T07:22:38;38.36;32.87
71649;SHT31;70112;45.624;11.760;2023-06-14T07:25:06;36.88;33.38
71649;SHT31;70112;45.624;11.760;2023-06-14T07:27:42;35.67;34.17
71649;SHT31;70112;45.624;11.760;2023-06-14T07:30:10;34.60;34.88
71649;SHT31;70112;45.624;11.760;2023-06-14T07:32:36;33.67;35.83
71649;SHT31;70112;45.624;11.760;2023-06-14T07:35:02;32.73;36.90
71649;SHT31;70112;45.624;11.760;2023-06-14T07:37:28;31.99;37.68
71649;SHT31;70112;45.624;11.760;2023-06-14T07:39:53;31.40;38.49
71649;SHT31;70112;45.624;11.760;2023-06-14T07:42:19;30.91;39.43
71649;SHT31;70112;45.624;11.760;2023-06-14T07:44:45;30.56;40.19
71649;SHT31;70112;45.624;11.760;2023-06-14T07:47:10;30.18;40.50
71649;SHT31;70112;45.624;11.760;2023-06-14T07:49:35;29.74;41.11
71649;SHT31;70112;45.624;11.760;2023-06-14T07:52:01;29.38;41.77
71649;SHT31;70112;45.624;11.760;2023-06-14T07:54:26;29.12;42.47
71649;SHT31;70112;45.624;11.760;2023-06-14T07:56:52;28.85;43.02
71649;SHT31;70112;45.624;11.760;2023-06-14T07:59:18;28.63;43.39
71649;SHT31;70112;45.624;11.760;2023-06-14T08:01:43;28.52;43.30
71649;SHT31;70112;45.624;11.760;2023-06-14T08:04:12;28.38;43.35
71649;SHT31;70112;45.624;11.760;2023-06-14T08:06:39;28.24;43.98
71649;SHT31;70112;45.624;11.760;2023-06-14T08:09:04;28.27;44.07
71649;SHT31;70112;45.624;11.760;2023-06-14T08:11:30;28.36;43.98
71649;SHT31;70112;45.624;11.760;2023-06-14T08:13:56;28.45;44.16
71649;SHT31;70112;45.624;11.760;2023-06-14T08:16:22;28.48;44.36
71649;SHT31;70112;45.624;11.760;2023-06-14T08:18:48;28.44;44.70
71649;SHT31;70112;45.624;11.760;2023-06-14T08:21:14;28.43;44.81
71649;SHT31;70112;45.624;11.760;2023-06-14T08:23:40;28.52;44.62
71649;SHT31;70112;45.624;11.760;2023-06-14T08:26:08;28.56;44.44
71649;SHT31;70112;45.624;11.760;2023-06-14T08:28:34;28.58;44.39
71649;SHT31;70112;45.624;11.760;2023-06-14T08:31:00;28.49;44.21
71649;SHT31;70112;45.624;11.760;2023-06-14T08:33:34;28.40;44.57
71649;SHT31;70112;45.624;11.760;2023-06-14T08:35:59;28.37;44.21
71649;SHT31;70112;45.624;11.760;2023-06-14T08:38:25;28.39;44.41
71649;SHT31;70112;45.624;11.760;2023-06-14T08:40:51;28.51;44.26
71649;SHT31;70112;45.624;11.760;2023-06-14T08:43:18;28.51;43.58
71649;SHT31;70112;45.624;11.760;2023-06-14T08:45:45;28.56;44.07
71649;SHT31;70112;45.624;11.760;2023-06-14T08:48:14;28.68;43.87
71649;SHT31;70112;45.624;11.760;2023-06-14T08:50:42;28.78;43.87
71649;SHT31;70112;45.624;11.760;2023-06-14T08:53:09;28.84;43.46
71649;SHT31;70112;45.624;11.760;2023-06-14T08:55:44;28.77;43.41
71649;SHT31;70112;45.624;11.760;2023-06-14T08:58:10;28.75;43.46
71649;SHT31;70112;45.624;11.760;2023-06-14T09:00:39;28.68;43.43
71649;SHT31;70112;45.624;11.760;2023-06-14T09:03:07;28.56;43.73
71649;SHT31;70112;45.624;11.760;2023-06-14T09:05:38;28.45;43.97
71649;SHT31;70112;45.624;11.760;2023-06-14T09:08:04;28.34;43.83
71649;SHT31;70112;45.624;11.760;2023-06-14T09:10:30;28.19;44.05
71649;SHT31;70112;45.624;11.760;2023-06-14T09:12:58;28.07;44.41
71649;SHT31;70112;45.624;11.760;2023-06-14T09:15:26;27.88;44.67
71649;SHT31;70112;45.624;11.760;2023-06-14T09:17:52;27.76;44.98
71649;SHT31;70112;45.624;11.760;2023-06-14T09:20:18;27.63;45.42
71649;SHT31;70112;45.624;11.760;2023-06-14T09:22:44;27.53;45.88
71649;SHT31;70112;45.624;11.760;2023-06-14T09:25:10;27.59;45.63
71649;SHT31;70112;45.624;11.760;2023-06-14T09:27:37;28.09;45.16
71649;SHT31;70112;45.624;11.760;2023-06-14T09:30:05;28.57;44.78
71649;SHT31;70112;45.624;11.760;2023-06-14T09:32:36;29.01;44.14
71649;SHT31;70112;45.624;11.760;2023-06-14T09:35:04;29.78;43.44
71649;SHT31;70112;45.624;11.760;2023-06-14T09:37:34;30.12;43.00
71649;SHT31;70112;45.624;11.760;2023-06-14T09:40:02;30.34;42.97
71649;SHT31;70112;45.624;11.760;2023-06-14T09:42:29;30.50;42.63
71649;SHT31;70112;45.624;11.760;2023-06-14T09:44:55;30.64;42.74
71649;SHT31;70112;45.624;11.760;2023-06-14T09:47:22;30.85;42.13
71649;SHT31;70112;45.624;11.760;2023-06-14T09:49:51;30.70;41.80
71649;SHT31;70112;45.624;11.760;2023-06-14T09:52:19;30.34;41.58
71649;SHT31;70112;45.624;11.760;2023-06-14T09:54:46;29.93;42.00
71649;SHT31;70112;45.624;11.760;2023-06-14T09:57:15;29.58;42.22
71649;SHT31;70112;45.624;11.760;2023-06-14T09:59:46;29.31;42.95
71649;SHT31;70112;45.624;11.760;2023-06-14T10:04:56;28.80;43.67
71649;SHT31;70112;45.624;11.760;2023-06-14T10:07:30;28.64;43.80
71649;SHT31;70112;45.624;11.760;2023-06-14T10:10:01;28.47;43.87
71649;SHT31;70112;45.624;11.760;2023-06-14T10:12:27;28.38;44.27
71649;SHT31;70112;45.624;11.760;2023-06-14T10:14:52;28.33;44.54
71649;SHT31;70112;45.624;11.760;2023-06-14T10:17:25;28.28;44.66
71649;SHT31;70112;45.624;11.760;2023-06-14T10:20:06;28.25;44.54
71649;SHT31;70112;45.624;11.760;2023-06-14T10:23:10;28.19;44.47
71649;SHT31;70112;45.624;11.760;2023-06-14T10:25:43;28.20;44.20
71649;SHT31;70112;45.624;11.760;2023-06-14T10:28:15;28.22;43.78
71649;SHT31;70112;45.624;11.760;2023-06-14T10:31:02;28.19;43.59
71649;SHT31;70112;45.624;11.760;2023-06-14T10:33:29;28.28;44.07
71649;SHT31;70112;45.624;11.760;2023-06-14T10:38:58;28.53;44.24
71649;SHT31;70112;45.624;11.760;2023-06-14T10:41:26;28.71;44.21
71649;SHT31;70112;45.624;11.760;2023-06-14T10:44:10;28.79;43.61
71649;SHT31;70112;45.624;11.760;2023-06-14T10:46:59;28.90;42.20
71649;SHT31;70112;45.624;11.760;2023-06-14T10:49:38;29.31;40.87
71649;SHT31;70112;45.624;11.760;2023-06-14T10:52:13;29.33;41.70
71649;SHT31;70112;45.624;11.760;2023-06-14T10:55:02;29.17;41.80
71649;SHT31;70112;45.624;11.760;2023-06-14T10:57:38;29.20;42.05
71649;SHT31;70112;45.624;11.760;2023-06-14T11:00:26;29.48;41.81
71649;SHT31;70112;45.624;11.760;2023-06-14T11:05:57;30.55;40.01
71649;SHT31;70112;45.624;11.760;2023-06-14T11:11:10;30.40;38.79
71649;SHT31;70112;45.624;11.760;2023-06-14T11:13:39;30.29;38.98
71649;SHT31;70112;45.624;11.760;2023-06-14T11:16:14;30.39;39.04
71649;SHT31;70112;45.624;11.760;2023-06-14T11:18:41;30.38;38.92
71649;SHT31;70112;45.624;11.760;2023-06-14T11:21:07;30.26;39.24
71649;SHT31;70112;45.624;11.760;2023-06-14T11:23:36;30.13;40.07
71649;SHT31;70112;45.624;11.760;2023-06-14T11:26:02;30.07;39.25
71649;SHT31;70112;45.624;11.760;2023-06-14T11:28:36;29.96;39.07
71649;SHT31;70112;45.624;11.760;2023-06-14T11:31:06;29.91;39.12
71649;SHT31;70112;45.624;11.760;2023-06-14T11:33:33;29.98;39.68
71649;SHT31;70112;45.624;11.760;2023-06-14T11:36:01;29.95;40.81
71649;SHT31;70112;45.624;11.760;2023-06-14T11:38:29;29.94;39.62
71649;SHT31;70112;45.624;11.760;2023-06-14T11:40:58;29.98;39.29
71649;SHT31;70112;45.624;11.760;2023-06-14T11:43:25;29.89;39.51
71649;SHT31;70112;45.624;11.760;2023-06-14T11:45:52;29.81;39.20
71649;SHT31;70112;45.624;11.760;2023-06-14T11:48:18;29.99;39.12
71649;SHT31;70112;45.624;11.760;2023-06-14T11:50:43;30.13;39.33
71649;SHT31;70112;45.624;11.760;2023-06-14T11:53:09;30.23;38.89
71649;SHT31;70112;45.624;11.760;2023-06-14T11:55:36;30.29;39.19
71649;SHT31;70112;45.624;11.760;2023-06-14T11:58:03;30.31;39.38
71649;SHT31;70112;45.624;11.760;2023-06-14T12:00:28;30.18;38.51
71649;SHT31;70112;45.624;11.760;2023-06-14T12:02:54;29.83;39.17
71649;SHT31;70112;45.624;11.760;2023-06-14T12:05:21;29.76;39.93
71649;SHT31;70112;45.624;11.760;2023-06-14T12:07:47;29.76;39.25
71649;SHT31;70112;45.624;11.760;2023-06-14T12:10:13;29.75;39.41
71649;SHT31;70112;45.624;11.760;2023-06-14T12:12:39;29.78;39.62
71649;SHT31;70112;45.624;11.760;2023-06-14T12:15:07;29.89;40.11
71649;SHT31;70112;45.624;11.760;2023-06-14T12:17:36;29.94;39.55
71649;SHT31;70112;45.624;11.760;2023-06-14T12:20:07;29.98;40.20
71649;SHT31;70112;45.624;11.760;2023-06-14T12:22:36;29.99;40.09
71649;SHT31;70112;45.624;11.760;2023-06-14T12:25:03;29.94;40.54
71649;SHT31;70112;45.624;11.760;2023-06-14T12:27:29;29.81;39.72
71649;SHT31;70112;45.624;11.760;2023-06-14T12:29:59;29.65;39.85
71649;SHT31;70112;45.624;11.760;2023-06-14T12:32:28;29.47;39.66
71649;SHT31;70112;45.624;11.760;2023-06-14T12:34:54;29.26;39.44
71649;SHT31;70112;45.624;11.760;2023-06-14T12:37:20;29.08;39.84
71649;SHT31;70112;45.624;11.760;2023-06-14T12:39:46;29.01;40.40
71649;SHT31;70112;45.624;11.760;2023-06-14T12:42:12;28.97;40.67
71649;SHT31;70112;45.624;11.760;2023-06-14T12:44:39;28.95;41.35
71649;SHT31;70112;45.624;11.760;2023-06-14T12:47:06;28.92;41.26
71649;SHT31;70112;45.624;11.760;2023-06-14T12:49:32;28.83;41.00
71649;SHT31;70112;45.624;11.760;2023-06-14T12:51:58;28.75;41.27
71649;SHT31;70112;45.624;11.760;2023-06-14T12:54:24;28.73;41.81
71649;SHT31;70112;45.624;11.760;2023-06-14T12:56:50;28.73;41.73
71649;SHT31;70112;45.624;11.760;2023-06-14T12:59:20;28.68;41.60
71649;SHT31;70112;45.624;11.760;2023-06-14T13:01:45;28.61;41.59
71649;SHT31;70112;45.624;11.760;2023-06-14T13:04:12;28.59;41.78
71649;SHT31;70112;45.624;11.760;2023-06-14T13:06:38;28.56;42.16
71649;SHT31;70112;45.624;11.760;2023-06-14T13:09:03;28.55;42.29
71649;SHT31;70112;45.624;11.760;2023-06-14T13:11:29;28.55;42.16
71649;SHT31;70112;45.624;11.760;2023-06-14T13:13:55;28.58;42.16
71649;SHT31;70112;45.624;11.760;2023-06-14T13:16:20;28.61;41.88
71649;SHT31;70112;45.624;11.760;2023-06-14T13:18:46;28.55;41.30
71649;SHT31;70112;45.624;11.760;2023-06-14T13:21:12;28.43;41.80
71649;SHT31;70112;45.624;11.760;2023-06-14T13:23:37;28.23;41.93
71649;SHT31;70112;45.624;11.760;2023-06-14T13:26:02;28.18;41.90
71649;SHT31;70112;45.624;11.760;2023-06-14T13:28:28;28.14;41.86
71649;SHT31;70112;45.624;11.760;2023-06-14T13:30:53;28.14;42.10
71649;SHT31;70112;45.624;11.760;2023-06-14T13:33:20;28.13;41.94
71649;SHT31;70112;45.624;11.760;2023-06-14T13:35:46;28.10;41.24
71649;SHT31;70112;45.624;11.760;2023-06-14T13:38:13;28.08;41.26
71649;SHT31;70112;45.624;11.760;2023-06-14T13:40:40;28.07;41.75
71649;SHT31;70112;45.624;11.760;2023-06-14T13:43:06;28.10;41.39
71649;SHT31;70112;45.624;11.760;2023-06-14T13:45:31;28.08;41.63
71649;SHT31;70112;45.624;11.760;2023-06-14T13:47:57;28.04;41.76
71649;SHT31;70112;45.624;11.760;2023-06-14T13:50:22;28.03;41.58
71649;SHT31;70112;45.624;11.760;2023-06-14T13:52:48;28.03;41.62
71649;SHT31;70112;45.624;11.760;2023-06-14T13:55:13;28.01;41.06
71649;SHT31;70112;45.624;11.760;2023-06-14T13:57:39;27.97;41.33
71649;SHT31;70112;45.624;11.760;2023-06-14T14:00:05;27.96;41.54
71649;SHT31;70112;45.624;11.760;2023-06-14T14:02:31;27.96;42.13
71649;SHT31;70112;45.624;11.760;2023-06-14T14:04:57;27.99;43.12
71649;SHT31;70112;45.624;11.760;2023-06-14T14:07:22;27.97;42.55
71649;SHT31;70112;45.624;11.760;2023-06-14T14:09:48;27.95;42.90
71649;SHT31;70112;45.624;11.760;2023-06-14T14:12:14;27.95;42.81
71649;SHT31;70112;45.624;11.760;2023-06-14T14:14:40;27.96;42.93
71649;SHT31;70112;45.624;11.760;2023-06-14T14:17:05;27.98;43.63
71649;SHT31;70112;45.624;11.760;2023-06-14T14:19:31;27.98;43.84
71649;SHT31;70112;45.624;11.760;2023-06-14T14:21:57;27.97;41.93
71649;SHT31;70112;45.624;11.760;2023-06-14T14:24:23;27.86;41.16
71649;SHT31;70112;45.624;11.760;2023-06-14T14:26:49;27.80;42.44
71649;SHT31;70112;45.624;11.760;2023-06-14T14:29:15;27.76;42.30
71649;SHT31;70112;45.624;11.760;2023-06-14T14:31:42;27.75;42.89
71649;SHT31;70112;45.624;11.760;2023-06-14T14:34:07;27.72;43.79
71649;SHT31;70112;45.624;11.760;2023-06-14T14:36:33;27.71;44.12
71649;SHT31;70112;45.624;11.760;2023-06-14T14:39:01;27.68;43.95
71649;SHT31;70112;45.624;11.760;2023-06-14T14:41:27;27.71;43.64
71649;SHT31;70112;45.624;11.760;2023-06-14T14:43:53;27.78;43.04
71649;SHT31;70112;45.624;11.760;2023-06-14T14:46:18;27.86;43.00
71649;SHT31;70112;45.624;11.760;2023-06-14T14:48:44;27.90;43.23
71649;SHT31;70112;45.624;11.760;2023-06-14T14:51:09;27.90;43.20
71649;SHT31;70112;45.624;11.760;2023-06-14T14:53:35;27.91;43.09
71649;SHT31;70112;45.624;11.760;2023-06-14T14:56:00;27.94;43.08
71649;SHT31;70112;45.624;11.760;2023-06-14T14:58:26;27.92;42.52
71649;SHT31;70112;45.624;11.760;2023-06-14T15:00:52;27.89;42.71
71649;SHT31;70112;45.624;11.760;2023-06-14T15:03:17;27.83;43.46
71649;SHT31;70112;45.624;11.760;2023-06-14T15:05:43;27.77;44.78
71649;SHT31;70112;45.624;11.760;2023-06-14T15:08:08;27.72;44.84
71649;SHT31;70112;45.624;11.760;2023-06-14T15:10:39;27.68;44.88
71649;SHT31;70112;45.624;11.760;2023-06-14T15:13:06;27.66;44.05
71649;SHT31;70112;45.624;11.760;2023-06-14T15:15:33;27.56;43.75
71649;SHT31;70112;45.624;11.760;2023-06-14T15:18:02;27.48;44.58
71649;SHT31;70112;45.624;11.760;2023-06-14T15:20:28;27.41;45.56
71649;SHT31;70112;45.624;11.760;2023-06-14T15:22:54;27.32;45.91
71649;SHT31;70112;45.624;11.760;2023-06-14T15:25:27;27.30;45.28
71649;SHT31;70112;45.624;11.760;2023-06-14T15:27:54;27.31;44.22
71649;SHT31;70112;45.624;11.760;2023-06-14T15:30:20;27.37;44.96
71649;SHT31;70112;45.624;11.760;2023-06-14T15:32:46;27.44;45.21